• Join FlightAware (Why Join?)
  • Login
  • US Flag 
06:27AM EST


 

Airport Tracker/Info


-or-


 

Live Flight TrackerFlight Track Log ✈ XOJ750 ✈ 1 Jul 2013 ✈ KVNY - KTEX

Flight Track Log - Related Links

Times and Time Zones

All times are in EDT time to prevent confusion due to time zone crossing. See the XOJ750 flight status page for this flight to view local times or setup timezone preferences in your user account.

Time Position Orientation Groundspeed Altitude Reporting Facility
EDT Latitude Longitude Course Direction KTS MPH feet Rate Location/Type
02:44PM 34.1869 -118.4892 116° Southeast 173 199 1,700  Level Los Angeles Center
02:45PM 34.1653 -118.4353 116° Southeast 273 314 4,000 2,220 Climbing Los Angeles Center
02:46PM 34.2272 -118.4483 350° North 253 291 6,300 2,220 Climbing Los Angeles Center
02:48PM 34.2992 -118.4319 11° North 279 321 8,600 2,280 Climbing Los Angeles Center
02:49PM 34.3711 -118.3881 27° Northeast 287 330 11,100 2,160 Climbing Los Angeles Center
02:50PM 34.4503 -118.3406 26° Northeast 314 361 13,200 1,920 Climbing Los Angeles Center
02:51PM 34.5292 -118.2283 50° Northeast 369 425 15,100 1,740 Climbing Los Angeles Center
02:52PM 34.5864 -118.1353 53° Northeast 380 437 16,900 1,740 Climbing Los Angeles Center
02:53PM 34.6361 -118.0225 62° Northeast 381 438 18,800 2,280 Climbing Los Angeles Center
02:54PM 34.6522 -117.8697 83° East 381 438 21,700 2,700 Climbing Los Angeles Center
02:55PM 34.6661 -117.7514 82° East 364 419 24,500 2,220 Climbing Los Angeles Center
02:56PM 34.6944 -117.6383 73° East 355 409 26,300 1,320 Climbing Los Angeles Center
02:57PM 34.7253 -117.5164 73° East 372 428 27,300 960 Climbing Los Angeles Center
02:58PM 34.7592 -117.3858 72° East 401 461 28,300 1,020 Climbing Los Angeles Center
03:00PM 34.8478 -117.0836 70° East 442 509 30,500 1,020 Climbing Los Angeles Center
03:01PM 34.8961 -116.9414 67° East 455 524 31,500 960 Climbing Los Angeles Center
03:02PM 34.9744 -116.8156 53° Northeast 468 539 32,500 960 Climbing Los Angeles Center
03:03PM 35.0614 -116.6908 50° Northeast 480 552 33,500 1,020 Climbing Los Angeles Center
03:04PM 35.1639 -116.5375 51° Northeast 486 559 34,700 960 Climbing Los Angeles Center
03:05PM 35.2525 -116.4083 50° Northeast 498 573 35,600 900 Climbing Los Angeles Center
03:06PM 35.3400 -116.2764 51° Northeast 501 577 36,600 960 Climbing Los Angeles Center
03:07PM 35.4272 -116.1456 51° Northeast 499 574 37,600 960 Climbing Los Angeles Center
03:08PM 35.5161 -116.0158 50° Northeast 497 572 38,600 960 Climbing Los Angeles Center
03:09PM 35.6169 -115.8631 51° Northeast 493 567 39,700 960 Climbing Los Angeles Center
03:10PM 35.7022 -115.7339 51° Northeast 489 563 40,700 600 Climbing Los Angeles Center
03:11PM 35.7886 -115.6039 51° Northeast 490 564 41,000 120 Climbing Los Angeles Center
03:12PM 35.8750 -115.4714 51° Northeast 496 571 41,000  Level Los Angeles Center
03:13PM 35.9778 -115.3150 51° Northeast 493 567 41,000  Level Los Angeles Center
03:14PM 36.0594 -115.1864 52° Northeast 482 555 41,000  Level Los Angeles Center
03:15PM 36.1167 -115.0364 65° Northeast 489 563 41,000  Level Los Angeles Center
03:16PM 36.1639 -114.8833 69° East 481 554 41,000  Level Los Angeles Center
03:18PM 36.2114 -114.7286 69° East 482 555 41,000  Level Los Angeles Center
03:19PM 36.2681 -114.5428 69° East 481 554 41,000  Level Los Angeles Center
03:20PM 36.3142 -114.3872 70° East 481 554 41,000  Level Los Angeles Center
03:21PM 36.3606 -114.2319 70° East 481 554 41,000  Level Los Angeles Center
03:22PM 36.4083 -114.0764 69° East 482 555 41,000  Level Los Angeles Center
03:23PM 36.4544 -113.9175 70° East 487 560 41,000  Level Los Angeles Center
03:24PM 36.5108 -113.7292 70° East 493 567 41,000  Level Los Angeles Center
03:25PM 36.5578 -113.5669 70° East 498 573 41,000  Level Los Angeles Center
03:26PM 36.6044 -113.4058 70° East 498 573 41,000  Level Los Angeles Center
03:27PM 36.6514 -113.2453 70° East 497 572 41,000  Level Los Angeles Center
03:28PM 36.6981 -113.0850 70° East 496 571 41,000  Level Los Angeles Center
03:29PM 36.7444 -112.9231 70° East 498 573 41,000  Level Los Angeles Center
03:30PM 36.8006 -112.7317 70° East 495 570 41,000  Level Los Angeles Center
03:31PM 36.8450 -112.5744 71° East 489 563 41,000  Level Los Angeles Center
03:32PM 36.8914 -112.4147 70° East 490 564 41,000  Level Los Angeles Center
03:33PM 36.9350 -112.2550 71° East 490 564 41,000  Level Los Angeles Center
03:34PM 36.9806 -112.0956 70° East 490 564 41,000  Level Los Angeles Center
03:35PM 37.0347 -111.9042 70° East 490 564 41,000  Level Los Angeles Center
03:36PM 37.0789 -111.7408 71° East 496 571 41,000  Level Los Angeles Center
03:37PM 37.1239 -111.5792 71° East 495 570 41,000  Level Los Angeles Center
03:38PM 37.1589 -111.4494 71° East 491 565 41,000  Level Denver Center
03:39PM 37.2017 -111.2867 72° East 493 567 41,000  Level Denver Center
03:40PM 37.2464 -111.1231 71° East 497 572 41,000 -840 Level Denver Center
03:42PM 37.3589 -110.8178 65° Northeast 485 558 38,500 -1,320 Descending Denver Center
03:43PM 37.4189 -110.6614 64° Northeast 498 573 37,000 -1,560 Descending Denver Center
03:44PM 37.4839 -110.4919 64° Northeast 502 578 35,300 -1,620 Descending Denver Center
03:45PM 37.5514 -110.3167 64° Northeast 499 574 33,700 -1,740 Descending Denver Center
03:46PM 37.5939 -110.1581 71° East 498 573 31,800 -2,100 Descending Denver Center
03:47PM 37.6392 -109.9700 73° East 501 577 29,500 -2,100 Descending Denver Center
03:48PM 37.6781 -109.8114 73° East 494 568 27,500 -2,160 Descending Denver Center
03:49PM 37.7358 -109.6383 67° East 479 551 24,700 -2,580 Descending Denver Center
03:50PM 37.7781 -109.4792 71° East 435 501 21,700 -3,420 Descending Denver Center
03:51PM 37.8139 -109.3342 73° East 393 452 17,700 -3,420 Descending Denver Center
03:53PM 37.8417 -109.2028 75° East 398 458 14,800 -1,440 Descending Denver Center
03:54PM 37.8733 -109.0511 75° East 401 461 14,800  Level Denver Center
03:55PM 37.8981 -108.9325 75° East 380 437 14,800 -120 Level Denver Center
03:56PM 37.9269 -108.7983 75° East 363 418 14,600 -600 Descending Denver Center
03:57PM 37.9478 -108.6956 76° East 338 389 13,600 -1,080 Descending Denver Center
03:58PM 37.9669 -108.6039 75° East 305 351 12,400 -900 Descending Denver Center
03:59PM 37.9892 -108.4964 75° East 289 333 11,800 -300 Descending Denver Center
04:00PM 38.0103 -108.4036 74° East 286 329 11,800  Level Denver Center
04:01PM 38.0331 -108.2894 76° East 293 337 11,800 -120 Level Denver Center
04:02PM 38.0136 -108.1967 105° East 286 329 11,600 -360 Descending Denver Center
04:03PM 37.9928 -108.1103 107° East 262 302 11,100 -540 Descending Denver Center
04:05PM 37.9538 -107.9088 104° East  Level Estimated
04:12PM 37.9538 -107.9088 104° East  Level Estimated
04:13PM 37.9538 -107.9088 104° East  Level Estimated
04:14PM 37.9538 -107.9088 104° East  Level Estimated
04:15PM 37.9538 -107.9088 104° East  Level Estimated
04:16PM 37.9538 -107.9088 104° East  Level Estimated